Time;durP1;ratioP1;P1;durP2;ratioP2;P2;SDS_P1;SDS_P2;PMS_P1;PMS_P2;Temp;Humidity;BMP_temperature;BMP_pressure;BME280_temperature;BME280_humidity;BME280_pressure;Samples;Min_cycle;Max_cycle;Signal;HPM_P1;HPM_P2
2022/12/19 00:00:11;;;;;;;40.07;18.63;;;-3.30;94.40;;;;;;4933647;29;20201;-81
2022/12/19 00:02:43;;;;;;;38.17;19.27;;;-3.30;94.20;;;;;;4958053;28;20626;-81
2022/12/19 00:05:13;;;;;;;40.03;19.20;;;-3.40;94.30;;;;;;4934911;29;20285;-80
2022/12/19 00:07:43;;;;;;;43.97;19.27;;;-3.40;94.50;;;;;;4953063;28;20342;-81
2022/12/19 00:10:10;;;;;;;39.27;19.00;;;-3.40;94.50;;;;;;4955241;28;20285;-81
2022/12/19 00:12:37;;;;;;;40.27;18.40;;;-3.40;94.50;;;;;;4955687;28;20209;-81
2022/12/19 00:15:05;;;;;;;39.93;19.33;;;-3.30;94.70;;;;;;4956261;28;20292;-81
2022/12/19 00:18:01;;;;;;;42.40;19.37;;;-3.20;94.40;;;;;;4949907;28;20642;-81
2022/12/19 00:20:39;;;;;;;39.97;19.10;;;-3.10;94.30;;;;;;4952231;28;20288;-81
2022/12/19 00:23:06;;;;;;;41.63;19.00;;;-3.10;94.20;;;;;;4937824;29;20688;-81
2022/12/19 00:25:33;;;;;;;39.57;19.37;;;-3.10;94.10;;;;;;4954449;28;20217;-85
2022/12/19 00:28:13;;;;;;;40.50;19.03;;;-3.10;94.10;;;;;;4961396;28;20204;-81
2022/12/19 00:30:40;;;;;;;42.57;18.73;;;-3.10;94.00;;;;;;4954310;28;20300;-84
2022/12/19 00:33:19;;;;;;;39.80;19.07;;;-3.00;94.30;;;;;;4954223;28;20728;-81
2022/12/19 00:35:59;;;;;;;41.80;19.33;;;-3.00;94.40;;;;;;4955114;28;20208;-81
2022/12/19 00:38:38;;;;;;;45.00;20.80;;;-3.00;94.60;;;;;;4954262;28;20212;-81
2022/12/19 00:41:21;;;;;;;43.00;20.00;;;-3.10;94.60;;;;;;4955779;28;20893;-81
2022/12/19 00:43:53;;;;;;;39.93;19.37;;;-3.00;94.70;;;;;;4955268;28;20558;-81
2022/12/19 00:46:27;;;;;;;38.30;18.90;;;-3.00;94.50;;;;;;4948094;28;20202;-81
2022/12/19 00:48:54;;;;;;;42.47;19.73;;;-3.10;94.70;;;;;;4952645;28;20211;-81
2022/12/19 00:51:25;;;;;;;43.17;19.23;;;-3.20;94.70;;;;;;4955902;28;20217;-81
2022/12/19 00:53:57;;;;;;;37.23;18.90;;;-3.30;94.90;;;;;;4952248;28;20280;-81
2022/12/19 00:56:33;;;;;;;41.13;19.90;;;-3.30;95.50;;;;;;4954843;28;20291;-81
2022/12/19 00:59:01;;;;;;;44.90;20.27;;;-3.30;95.90;;;;;;4961403;28;20208;-81
2022/12/19 01:01:34;;;;;;;42.97;20.40;;;-3.20;95.60;;;;;;4949121;28;20217;-83
2022/12/19 01:04:03;;;;;;;45.50;20.73;;;-3.20;95.40;;;;;;4950743;28;20200;-81
2022/12/19 01:06:57;;;;;;;38.37;19.17;;;-3.30;95.30;;;;;;4964390;28;20203;-81
2022/12/19 01:10:07;;;;;;;37.47;18.97;;;-3.20;95.60;;;;;;4955130;28;20207;-81
2022/12/19 01:12:45;;;;;;;40.23;19.70;;;-3.40;95.60;;;;;;4955653;28;20285;-80
2022/12/19 01:15:16;;;;;;;42.33;19.60;;;-3.40;95.90;;;;;;4949280;28;20232;-81
2022/12/19 01:17:55;;;;;;;42.33;20.00;;;-3.30;95.90;;;;;;4954381;28;20204;-81
2022/12/19 01:20:25;;;;;;;39.97;19.73;;;-3.40;95.90;;;;;;4955843;28;20287;-81
2022/12/19 01:22:54;;;;;;;35.60;18.70;;;-3.30;95.90;;;;;;4946817;29;20236;-80
2022/12/19 01:25:32;;;;;;;37.63;18.77;;;-3.40;95.80;;;;;;4957054;28;20213;-80
2022/12/19 01:28:08;;;;;;;36.43;17.67;;;-3.40;95.80;;;;;;4957423;28;20205;-81
2022/12/19 01:30:40;;;;;;;36.70;17.63;;;-3.30;95.90;;;;;;4959977;28;20287;-80
2022/12/19 01:33:20;;;;;;;40.23;18.40;;;-3.30;95.30;;;;;;4954750;28;20553;-81
2022/12/19 01:35:49;;;;;;;33.87;16.67;;;-3.20;95.50;;;;;;4951092;28;20205;-81
2022/12/19 01:38:21;;;;;;;35.33;17.73;;;-3.10;95.40;;;;;;4955627;28;20197;-81
2022/12/19 01:40:52;;;;;;;34.90;17.73;;;-3.00;95.20;;;;;;4957129;28;20216;-82
2022/12/19 01:43:20;;;;;;;33.47;17.43;;;-2.90;94.70;;;;;;4954898;28;20220;-81
2022/12/19 01:45:49;;;;;;;39.33;17.87;;;-3.00;94.60;;;;;;4954475;28;20216;-81
2022/12/19 01:48:25;;;;;;;34.40;16.87;;;-3.10;94.80;;;;;;4954187;28;20204;-81
2022/12/19 01:50:56;;;;;;;34.70;17.67;;;-3.20;95.00;;;;;;4959942;28;20703;-81
2022/12/19 01:53:40;;;;;;;32.73;16.83;;;-3.10;95.20;;;;;;4953406;28;20197;-80
2022/12/19 01:56:24;;;;;;;31.80;16.60;;;-3.00;94.60;;;;;;4950172;28;20202;-81
2022/12/19 01:58:54;;;;;;;34.40;17.63;;;-3.10;94.80;;;;;;4955866;28;20196;-81
2022/12/19 02:01:59;;;;;;;36.23;18.27;;;-3.30;95.10;;;;;;4940053;28;20685;-81
2022/12/19 02:05:00;;;;;;;32.60;16.73;;;-3.40;95.40;;;;;;4956787;28;20209;-81
2022/12/19 02:07:33;;;;;;;33.20;17.47;;;-3.40;95.50;;;;;;4959782;28;20205;-81
2022/12/19 02:10:15;;;;;;;33.30;17.07;;;-3.50;95.90;;;;;;4960204;28;20284;-81
2022/12/19 02:12:45;;;;;;;35.40;17.90;;;-3.40;95.90;;;;;;4953855;28;20284;-81
2022/12/19 02:15:14;;;;;;;31.17;17.40;;;-3.50;96.00;;;;;;4959594;28;20197;-81
2022/12/19 02:17:54;;;;;;;36.03;18.53;;;-3.50;96.10;;;;;;4957923;28;20453;-80
2022/12/19 02:20:58;;;;;;;33.87;17.30;;;-3.40;96.30;;;;;;4953888;28;20226;-80
2022/12/19 02:23:52;;;;;;;33.27;17.50;;;-3.30;96.40;;;;;;4953369;28;20243;-83
2022/12/19 02:26:40;;;;;;;35.03;17.30;;;-3.00;96.00;;;;;;4953813;28;20212;-81
2022/12/19 02:29:47;;;;;;;34.03;16.80;;;-3.10;95.50;;;;;;4956601;28;20213;-81
2022/12/19 02:32:28;;;;;;;36.50;18.00;;;-3.10;95.60;;;;;;4874620;29;20267;-81
2022/12/19 02:35:00;;;;;;;32.27;16.97;;;-3.10;95.80;;;;;;4878681;29;20694;-81
2022/12/19 02:37:31;;;;;;;32.77;17.20;;;-3.30;95.80;;;;;;4885219;29;20203;-81
2022/12/19 02:40:05;;;;;;;34.00;16.43;;;-3.30;95.90;;;;;;4876454;29;20307;-81
2022/12/19 02:42:37;;;;;;;35.50;18.03;;;-3.20;96.00;;;;;;4861057;29;20211;-81
2022/12/19 02:45:11;;;;;;;32.63;18.07;;;-3.20;96.00;;;;;;4879304;29;20283;-81
2022/12/19 02:47:52;;;;;;;35.27;18.70;;;-3.30;96.10;;;;;;4876547;29;20649;-81
2022/12/19 02:51:07;;;;;;;35.60;18.63;;;-3.30;95.90;;;;;;4884840;29;20203;-81
2022/12/19 02:53:35;;;;;;;34.43;18.07;;;-3.30;96.00;;;;;;4875431;29;20203;-81
2022/12/19 02:56:22;;;;;;;35.43;18.03;;;-3.40;96.20;;;;;;4879907;29;20217;-80
2022/12/19 02:59:37;;;;;;;36.10;17.73;;;-3.40;96.50;;;;;;4869397;29;20211;-81
2022/12/19 03:02:30;;;;;;;39.47;18.93;;;-3.30;96.70;;;;;;4839427;29;20582;-81
2022/12/19 03:05:15;;;;;;;35.17;18.40;;;-3.30;96.30;;;;;;4829178;29;20209;-80
2022/12/19 03:07:49;;;;;;;38.57;18.90;;;-3.30;96.40;;;;;;4838877;29;20753;-81
2022/12/19 03:10:22;;;;;;;35.80;19.27;;;-3.20;96.30;;;;;;4920629;29;20204;-81
2022/12/19 03:12:55;;;;;;;39.73;19.70;;;-3.30;96.20;;;;;;4913517;29;20255;-81
2022/12/19 03:15:26;;;;;;;39.57;19.90;;;-3.30;96.30;;;;;;4916170;29;20781;-81
2022/12/19 03:18:02;;;;;;;35.70;18.83;;;-3.30;96.60;;;;;;4921563;29;20206;-81
2022/12/19 03:20:43;;;;;;;34.63;18.90;;;-3.20;96.60;;;;;;4898367;29;20221;-81
2022/12/19 03:23:11;;;;;;;36.40;19.03;;;-3.00;96.50;;;;;;4918278;29;20230;-80
2022/12/19 03:25:41;;;;;;;34.93;19.03;;;-2.70;95.90;;;;;;4913877;29;20201;-82
2022/12/19 03:28:13;;;;;;;41.03;20.13;;;-2.60;95.40;;;;;;4916413;29;20663;-81
2022/12/19 03:30:45;;;;;;;36.83;19.03;;;-2.50;95.00;;;;;;4913406;29;20256;-83
2022/12/19 03:33:16;;;;;;;37.50;19.47;;;-2.30;94.20;;;;;;4917070;29;20285;-80
2022/12/19 03:35:59;;;;;;;36.73;19.03;;;-2.30;94.10;;;;;;4936043;28;20290;-80
2022/12/19 03:38:49;;;;;;;32.23;18.37;;;-2.20;93.60;;;;;;4963847;28;20205;-81
2022/12/19 03:43:07;;;;;;;41.90;20.13;;;-2.20;93.60;;;;;;4956271;28;20666;-81
2022/12/19 03:44:10;;;;;;;36.03;18.70;;;-2.30;93.60;;;;;;4957328;28;20205;-81
2022/12/19 03:46:41;;;;;;;38.40;19.17;;;-2.30;93.60;;;;;;4956463;28;20203;-81
2022/12/19 03:49:37;;;;;;;36.47;19.30;;;-2.30;93.50;;;;;;4959958;28;20201;-83
2022/12/19 03:52:29;;;;;;;32.67;18.23;;;-2.30;93.50;;;;;;4954975;29;20224;-81
2022/12/19 03:55:04;;;;;;;36.93;19.40;;;-2.50;94.00;;;;;;4957073;28;20974;-81
2022/12/19 03:57:49;;;;;;;36.20;19.47;;;-2.60;94.10;;;;;;4956939;28;20205;-81
2022/12/19 04:00:18;;;;;;;37.83;19.37;;;-2.60;94.50;;;;;;4955768;28;20530;-81
2022/12/19 04:02:52;;;;;;;35.43;19.03;;;-2.60;94.70;;;;;;4963982;28;20197;-81
2022/12/19 04:05:24;;;;;;;39.57;19.93;;;-2.70;94.60;;;;;;4956817;28;20215;-81
2022/12/19 04:08:06;;;;;;;38.87;19.43;;;-2.70;94.80;;;;;;4955163;28;20284;-80
2022/12/19 04:10:43;;;;;;;34.90;19.27;;;-2.80;95.10;;;;;;4939521;29;20206;-81
2022/12/19 04:13:34;;;;;;;35.33;19.67;;;-2.70;95.30;;;;;;4961662;28;20199;-81
2022/12/19 04:16:10;;;;;;;37.07;19.03;;;-2.70;94.80;;;;;;4956222;28;20198;-81
2022/12/19 04:18:56;;;;;;;36.70;19.63;;;-2.60;94.90;;;;;;4958099;28;20292;-81
2022/12/19 04:21:30;;;;;;;36.80;19.27;;;-2.70;95.00;;;;;;4955055;28;20209;-81
2022/12/19 04:24:04;;;;;;;39.73;20.37;;;-2.80;95.70;;;;;;4949641;28;20231;-81
2022/12/19 04:26:42;;;;;;;40.27;20.40;;;-2.90;96.10;;;;;;4955585;28;20201;-81
2022/12/19 04:29:20;;;;;;;37.40;19.63;;;-2.80;96.10;;;;;;4953724;28;20647;-80
2022/12/19 04:31:50;;;;;;;39.97;19.97;;;-2.70;96.20;;;;;;4954576;29;20928;-82
2022/12/19 04:34:25;;;;;;;46.20;20.83;;;-2.80;96.40;;;;;;4958690;28;20557;-81
2022/12/19 04:36:52;;;;;;;40.23;19.93;;;-2.90;96.60;;;;;;4955684;28;20286;-81
2022/12/19 04:39:21;;;;;;;46.27;20.90;;;-2.80;97.10;;;;;;4955861;28;20284;-80
2022/12/19 04:41:50;;;;;;;42.83;21.03;;;-2.70;96.60;;;;;;4953528;28;20673;-81
2022/12/19 04:44:18;;;;;;;42.90;19.50;;;-2.60;96.90;;;;;;4948410;28;20200;-81
2022/12/19 04:46:45;;;;;;;45.80;19.70;;;-2.50;96.70;;;;;;4953817;28;20248;-81
2022/12/19 04:49:14;;;;;;;45.17;20.73;;;-2.50;96.30;;;;;;4955678;28;20560;-81
2022/12/19 04:51:44;;;;;;;42.20;20.50;;;-2.50;96.30;;;;;;4955325;28;20308;-81
2022/12/19 04:54:39;;;;;;;41.77;19.80;;;-2.50;96.10;;;;;;4951108;28;20200;-81
2022/12/19 04:57:19;;;;;;;41.60;19.60;;;-2.30;96.00;;;;;;4953217;28;20293;-81
2022/12/19 04:59:50;;;;;;;40.67;19.37;;;-2.30;95.70;;;;;;4954789;28;20203;-81
2022/12/19 05:02:20;;;;;;;43.60;20.73;;;-2.30;96.00;;;;;;4955493;28;20197;-81
2022/12/19 05:04:56;;;;;;;45.10;19.90;;;-2.30;95.90;;;;;;4956293;28;20568;-81
2022/12/19 05:07:23;;;;;;;45.80;20.47;;;-2.30;95.90;;;;;;4950556;28;20215;-80
2022/12/19 05:09:51;;;;;;;42.67;19.97;;;-2.20;95.60;;;;;;4955991;28;20282;-81
2022/12/19 05:12:20;;;;;;;41.13;19.70;;;-2.30;95.90;;;;;;4952772;28;20765;-81
2022/12/19 05:14:56;;;;;;;43.43;20.57;;;-2.20;96.20;;;;;;4954327;28;20285;-81
2022/12/19 05:17:26;;;;;;;41.93;20.53;;;-2.30;96.20;;;;;;4952511;28;20611;-81
2022/12/19 05:19:56;;;;;;;49.37;21.00;;;-2.30;96.20;;;;;;4955276;28;20566;-81
2022/12/19 05:22:23;;;;;;;41.17;19.60;;;-2.40;96.40;;;;;;4953724;28;20221;-81
2022/12/19 05:24:57;;;;;;;44.70;20.60;;;-2.40;96.70;;;;;;4955256;28;20216;-80
2022/12/19 05:27:26;;;;;;;42.00;20.63;;;-2.30;96.60;;;;;;4954862;28;20208;-81
2022/12/19 05:30:02;;;;;;;41.97;20.00;;;-2.20;96.30;;;;;;4955408;28;20659;-81
2022/12/19 05:32:38;;;;;;;39.87;19.33;;;-2.20;96.20;;;;;;4954040;28;20242;-81
2022/12/19 05:35:14;;;;;;;44.63;19.93;;;-2.20;96.30;;;;;;4954885;28;20292;-81
2022/12/19 05:37:50;;;;;;;41.67;20.00;;;-2.00;96.10;;;;;;4954907;28;20612;-81
2022/12/19 05:40:18;;;;;;;41.40;19.40;;;-2.10;96.10;;;;;;4954273;28;20289;-81
2022/12/19 05:42:50;;;;;;;41.67;19.97;;;-2.00;96.20;;;;;;4954254;28;20292;-81
2022/12/19 05:45:20;;;;;;;38.63;19.70;;;-2.00;95.80;;;;;;4956953;28;20208;-81
2022/12/19 05:48:07;;;;;;;42.70;20.53;;;-2.10;96.10;;;;;;4954356;28;20611;-81
2022/12/19 05:51:01;;;;;;;41.67;21.03;;;-2.20;96.20;;;;;;4949612;28;20250;-80
2022/12/19 05:53:39;;;;;;;39.17;19.13;;;-2.10;96.50;;;;;;4954136;28;20199;-81
2022/12/19 05:56:17;;;;;;;42.50;20.03;;;-1.70;95.90;;;;;;4956575;28;20703;-81
2022/12/19 05:59:02;;;;;;;40.03;19.60;;;-1.70;95.70;;;;;;4948043;28;20203;-81
2022/12/19 06:01:38;;;;;;;41.97;19.77;;;-1.50;95.10;;;;;;4950223;28;20220;-82
2022/12/19 06:04:08;;;;;;;40.90;19.53;;;-1.60;95.00;;;;;;4951768;28;20289;-80
2022/12/19 06:06:35;;;;;;;35.87;18.53;;;-1.60;95.10;;;;;;4951748;28;20201;-79
2022/12/19 06:09:20;;;;;;;42.23;20.87;;;-1.70;95.40;;;;;;4947298;28;20201;-81
2022/12/19 06:11:48;;;;;;;42.40;18.87;;;-1.60;95.30;;;;;;4952623;28;20283;-80
2022/12/19 06:14:26;;;;;;;41.70;20.20;;;-1.80;95.70;;;;;;4950782;28;20284;-82
2022/12/19 06:16:56;;;;;;;40.03;21.30;;;-1.70;96.00;;;;;;4935365;29;20404;-81
2022/12/19 06:19:55;;;;;;;41.20;19.53;;;-1.60;95.70;;;;;;4953060;28;20291;-80
2022/12/19 06:22:26;;;;;;;41.77;20.07;;;-1.60;95.70;;;;;;4954109;28;20742;-80
2022/12/19 06:25:26;;;;;;;45.53;21.83;;;-1.50;95.40;;;;;;4952280;29;20296;-81
2022/12/19 06:28:03;;;;;;;41.20;19.63;;;-1.60;95.40;;;;;;4955123;28;20634;-80
2022/12/19 06:30:56;;;;;;;40.03;19.57;;;-1.80;96.00;;;;;;4951404;28;20291;-81
2022/12/19 06:33:22;;;;;;;41.60;20.83;;;-1.80;96.30;;;;;;4955192;28;20213;-83
2022/12/19 06:36:20;;;;;;;42.43;19.60;;;-1.80;96.40;;;;;;4955602;28;20557;-82
2022/12/19 06:42:37;;;;;;;39.87;19.97;;;-1.50;96.30;;;;;;4955153;28;20231;-83
2022/12/19 06:45:27;;;;;;;38.60;18.80;;;-1.40;95.90;;;;;;4953577;28;20240;-83
2022/12/19 06:48:03;;;;;;;36.17;17.60;;;-1.40;95.40;;;;;;4945076;28;20645;-83
2022/12/19 06:50:55;;;;;;;39.03;18.30;;;-1.40;95.50;;;;;;4954721;28;20212;-82
2022/12/19 06:53:23;;;;;;;38.27;19.00;;;-1.30;96.10;;;;;;4952411;28;20304;-82
2022/12/19 06:56:02;;;;;;;36.87;17.50;;;-1.20;95.60;;;;;;4949769;29;20208;-83
2022/12/19 06:58:29;;;;;;;40.17;19.00;;;-1.30;96.10;;;;;;4950831;29;20288;-82
2022/12/19 07:01:39;;;;;;;35.37;18.40;;;-1.20;95.90;;;;;;4953173;28;21373;-86
2022/12/19 07:04:19;;;;;;;37.77;19.00;;;-1.10;96.40;;;;;;4949019;28;20603;-82
2022/12/19 07:07:02;;;;;;;34.97;17.90;;;-1.00;96.70;;;;;;4951968;28;20197;-82
2022/12/19 07:09:44;;;;;;;37.90;18.90;;;-1.00;96.40;;;;;;4960450;28;20303;-83
2022/12/19 07:12:14;;;;;;;36.27;18.60;;;-0.90;96.80;;;;;;4957370;28;20225;-82
2022/12/19 07:14:41;;;;;;;35.97;18.17;;;-0.90;96.40;;;;;;4957185;28;20284;-83
2022/12/19 07:17:28;;;;;;;38.10;19.00;;;-0.90;96.00;;;;;;4972081;28;20202;-83
2022/12/19 07:20:03;;;;;;;39.67;18.57;;;-1.00;96.70;;;;;;4973633;28;20363;-83
2022/12/19 07:23:03;;;;;;;38.33;19.30;;;-1.00;96.50;;;;;;4974023;28;20229;-84
2022/12/19 07:25:32;;;;;;;37.47;19.07;;;-0.90;96.40;;;;;;4958542;28;20628;-83
2022/12/19 07:28:02;;;;;;;37.87;19.33;;;-0.90;96.40;;;;;;4959784;28;20201;-84
2022/12/19 07:30:44;;;;;;;42.97;19.93;;;-0.80;96.50;;;;;;4957846;28;20722;-83
2022/12/19 07:33:33;;;;;;;39.17;18.90;;;-0.70;97.00;;;;;;4957946;28;20578;-84
2022/12/19 07:36:02;;;;;;;41.37;19.27;;;-0.60;95.90;;;;;;4951826;29;20205;-83
2022/12/19 07:38:49;;;;;;;34.43;18.53;;;-0.70;96.20;;;;;;4959091;28;20201;-81
2022/12/19 07:41:26;;;;;;;45.67;19.13;;;-0.60;96.10;;;;;;4958262;28;20288;-80
2022/12/19 07:43:56;;;;;;;37.27;18.40;;;-0.60;96.50;;;;;;4955893;28;20209;-85
2022/12/19 07:46:23;;;;;;;34.13;18.07;;;-0.40;96.90;;;;;;4943034;29;20213;-86
2022/12/19 07:49:03;;;;;;;35.90;16.87;;;-0.30;96.40;;;;;;4959759;28;20203;-86
2022/12/19 07:51:38;;;;;;;34.20;17.53;;;0.00;96.10;;;;;;4939350;29;20281;-83
2022/12/19 07:54:08;;;;;;;32.80;17.47;;;-0.10;95.40;;;;;;4955963;28;20223;-84
2022/12/19 07:56:38;;;;;;;36.27;18.40;;;0.10;95.70;;;;;;4944534;28;20307;-83
2022/12/19 07:59:14;;;;;;;33.07;17.07;;;0.20;95.20;;;;;;4956638;29;20661;-84
2022/12/19 08:01:44;;;;;;;34.17;16.67;;;0.20;94.90;;;;;;4955049;28;20211;-82
2022/12/19 08:04:21;;;;;;;31.27;16.70;;;0.20;95.00;;;;;;4958513;28;20208;-81
2022/12/19 08:06:50;;;;;;;31.07;16.43;;;0.40;94.10;;;;;;4952639;28;20232;-82
2022/12/19 08:09:20;;;;;;;29.23;15.90;;;0.50;94.50;;;;;;4956171;29;20280;-81
2022/12/19 08:12:09;;;;;;;30.23;16.37;;;0.50;94.10;;;;;;4955361;28;20288;-81
2022/12/19 08:14:44;;;;;;;31.23;16.17;;;0.70;94.70;;;;;;4955118;28;20205;-81
2022/12/19 08:17:14;;;;;;;29.10;15.83;;;0.70;94.20;;;;;;4954766;28;20200;-83
2022/12/19 08:19:42;;;;;;;31.53;16.60;;;0.60;94.10;;;;;;4954125;28;20537;-86
2022/12/19 08:22:09;;;;;;;30.67;15.97;;;0.80;94.40;;;;;;4951236;28;20229;-84
2022/12/19 08:24:36;;;;;;;26.83;15.20;;;0.90;94.40;;;;;;4953337;28;20288;-84
2022/12/19 08:27:03;;;;;;;26.40;14.83;;;1.00;94.20;;;;;;4953413;28;20213;-86
2022/12/19 08:29:32;;;;;;;26.83;14.83;;;0.80;94.20;;;;;;4952055;28;20280;-84
2022/12/19 08:31:59;;;;;;;24.27;13.97;;;1.00;94.20;;;;;;4949919;28;20319;-84
2022/12/19 08:34:26;;;;;;;27.10;14.40;;;1.20;94.30;;;;;;4953028;28;20729;-84
2022/12/19 08:36:54;;;;;;;25.00;14.27;;;1.30;93.90;;;;;;4953875;28;20205;-86
2022/12/19 08:39:21;;;;;;;26.83;14.07;;;1.40;94.10;;;;;;4952745;28;20292;-85
2022/12/19 08:41:48;;;;;;;24.23;13.87;;;1.60;94.20;;;;;;4951663;28;20205;-84
2022/12/19 08:44:15;;;;;;;24.73;13.23;;;1.50;93.40;;;;;;4951973;28;20203;-84
2022/12/19 08:46:42;;;;;;;19.33;12.13;;;1.70;94.00;;;;;;4952603;28;20197;-85
2022/12/19 08:49:09;;;;;;;21.37;11.93;;;1.90;93.20;;;;;;4952457;28;20633;-85
2022/12/19 08:51:36;;;;;;;23.00;12.37;;;2.20;93.60;;;;;;4955690;28;20579;-85
2022/12/19 08:54:04;;;;;;;21.60;11.43;;;2.10;92.80;;;;;;4951470;28;20221;-84
2022/12/19 08:56:32;;;;;;;23.03;12.53;;;2.10;93.20;;;;;;4951143;28;20572;-84
2022/12/19 08:58:59;;;;;;;16.13;10.47;;;2.40;93.60;;;;;;4952320;28;20224;-85
2022/12/19 09:01:26;;;;;;;20.37;11.13;;;2.60;92.80;;;;;;4943712;28;20209;-85
2022/12/19 09:03:53;;;;;;;19.60;11.67;;;2.70;92.40;;;;;;4950234;28;20249;-86
2022/12/19 09:06:20;;;;;;;21.43;11.30;;;2.90;93.00;;;;;;4947886;28;20750;-85
2022/12/19 09:08:47;;;;;;;18.13;10.20;;;3.10;92.40;;;;;;4950620;28;20240;-85
2022/12/19 09:11:17;;;;;;;17.80;10.70;;;3.10;92.00;;;;;;4949668;28;20280;-85
2022/12/19 09:13:45;;;;;;;16.17;10.80;;;3.20;91.60;;;;;;4950767;28;20229;-85
2022/12/19 09:16:16;;;;;;;15.07;9.90;;;3.40;91.40;;;;;;4953242;28;20545;-85
2022/12/19 09:18:46;;;;;;;19.73;9.93;;;3.60;91.10;;;;;;4952971;28;20207;-87
2022/12/19 09:21:13;;;;;;;18.20;10.80;;;3.80;91.00;;;;;;4949844;28;20228;-85
2022/12/19 09:23:41;;;;;;;18.37;9.87;;;3.80;91.20;;;;;;4951724;28;20232;-86
2022/12/19 09:26:11;;;;;;;15.77;10.10;;;3.80;91.20;;;;;;4953611;28;20201;-83
2022/12/19 09:28:41;;;;;;;17.00;10.23;;;3.70;91.10;;;;;;4949681;28;20220;-87
2022/12/19 09:31:11;;;;;;;16.87;10.07;;;3.90;91.70;;;;;;4946660;28;20216;-87
2022/12/19 09:33:38;;;;;;;16.23;10.60;;;3.90;91.50;;;;;;4948383;28;20268;-87
2022/12/19 09:36:06;;;;;;;16.23;9.97;;;3.90;92.10;;;;;;4950041;28;20205;-86
2022/12/19 09:38:34;;;;;;;14.83;9.47;;;3.90;92.00;;;;;;4949500;28;20577;-87
2022/12/19 09:41:14;;;;;;;17.07;9.67;;;3.90;91.90;;;;;;4950872;28;20295;-88
2022/12/19 09:43:56;;;;;;;19.27;9.80;;;3.70;92.30;;;;;;4950429;28;20240;-87
2022/12/19 09:46:34;;;;;;;17.80;10.23;;;3.90;92.60;;;;;;4948087;28;20285;-87
2022/12/19 09:49:18;;;;;;;18.40;10.00;;;4.20;92.80;;;;;;4951817;28;20201;-87
2022/12/19 09:51:53;;;;;;;15.23;9.60;;;4.40;91.30;;;;;;4951312;28;20531;-88
2022/12/19 09:54:25;;;;;;;15.37;9.23;;;4.60;91.10;;;;;;4949664;28;20229;-86
2022/12/19 09:57:02;;;;;;;13.97;9.07;;;4.50;90.50;;;;;;4950585;28;20288;-88
2022/12/19 09:59:35;;;;;;;16.03;8.47;;;4.50;90.70;;;;;;4947802;28;20212;-87
2022/12/19 10:02:14;;;;;;;13.93;8.47;;;4.50;90.40;;;;;;4947545;28;20216;-87
2022/12/19 10:04:49;;;;;;;11.00;7.70;;;4.30;90.40;;;;;;4949443;28;20205;-88
2022/12/19 10:07:18;;;;;;;13.48;9.00;;;4.20;91.00;;;;;;4947798;28;20755;-87
2022/12/19 10:09:45;;;;;;;13.02;8.45;;;4.50;91.20;;;;;;4950567;28;20220;-87
2022/12/19 10:12:27;;;;;;;11.07;7.77;;;4.80;90.50;;;;;;4948882;28;20209;-86
2022/12/19 10:15:03;;;;;;;14.88;8.27;;;5.00;90.20;;;;;;4946895;28;20247;-86
2022/12/19 10:17:39;;;;;;;13.73;9.60;;;5.20;90.70;;;;;;4945415;28;20264;-87
2022/12/19 10:20:19;;;;;;;13.10;8.20;;;5.30;89.10;;;;;;4945789;28;20201;-87
2022/12/19 10:23:08;;;;;;;14.05;8.65;;;5.30;89.10;;;;;;4946915;28;20303;-87
2022/12/19 10:25:51;;;;;;;16.20;8.90;;;5.50;89.50;;;;;;4946117;28;20201;-87
2022/12/19 10:28:36;;;;;;;13.27;8.25;;;5.50;89.30;;;;;;4947861;28;20205;-86
2022/12/19 10:31:16;;;;;;;18.08;10.60;;;5.70;88.30;;;;;;4949549;28;20209;-87
2022/12/19 10:33:49;;;;;;;16.73;10.75;;;5.70;87.80;;;;;;4944714;28;20311;-85
2022/12/19 10:36:16;;;;;;;18.17;11.77;;;5.80;85.50;;;;;;4950468;28;20308;-85
2022/12/19 10:38:51;;;;;;;21.30;13.07;;;5.70;85.50;;;;;;4950198;28;20550;-86
2022/12/19 10:41:22;;;;;;;19.30;13.32;;;5.30;85.80;;;;;;4946193;28;20679;-86
2022/12/19 10:44:01;;;;;;;22.80;13.20;;;5.10;89.00;;;;;;4949174;28;20209;-85
2022/12/19 10:46:38;;;;;;;18.33;11.35;;;5.00;90.30;;;;;;4948743;28;20215;-86
2022/12/19 10:49:13;;;;;;;19.52;12.98;;;5.10;90.50;;;;;;4948536;28;20236;-85
2022/12/19 10:51:41;;;;;;;19.35;12.57;;;5.20;90.10;;;;;;4949481;28;20744;-88
2022/12/19 10:54:08;;;;;;;19.10;12.50;;;5.40;89.20;;;;;;4946719;28;20225;-88
2022/12/19 10:56:35;;;;;;;21.63;13.32;;;5.40;89.20;;;;;;4951660;28;20304;-86
2022/12/19 10:59:02;;;;;;;19.15;12.60;;;5.30;89.10;;;;;;4950443;28;20215;-86
2022/12/19 11:01:33;;;;;;;19.05;13.05;;;5.10;90.20;;;;;;4946887;28;20209;-85
2022/12/19 11:04:25;;;;;;;21.05;13.00;;;5.40;89.20;;;;;;4951555;28;20216;-84
2022/12/19 11:07:16;;;;;;;21.23;11.98;;;5.70;89.40;;;;;;4951559;28;20208;-84
2022/12/19 11:09:43;;;;;;;16.92;12.07;;;5.80;89.50;;;;;;4956863;28;20296;-86
2022/12/19 11:12:16;;;;;;;18.15;11.43;;;5.80;88.20;;;;;;4947783;28;20576;-85
2022/12/19 11:14:49;;;;;;;19.00;12.40;;;5.90;88.50;;;;;;4951848;28;20308;-85
2022/12/19 11:17:26;;;;;;;19.60;11.23;;;6.00;88.50;;;;;;4948368;28;20327;-85
2022/12/19 11:19:56;;;;;;;16.48;10.73;;;5.80;89.10;;;;;;4951664;28;20657;-85
2022/12/19 11:22:25;;;;;;;15.75;10.52;;;5.70;89.40;;;;;;4944031;28;20237;-87
2022/12/19 11:24:54;;;;;;;15.48;10.23;;;5.70;89.40;;;;;;4950507;28;20209;-85
2022/12/19 11:27:36;;;;;;;15.10;9.60;;;5.50;90.00;;;;;;4949317;28;20675;-84
2022/12/19 11:30:08;;;;;;;14.90;10.48;;;5.50;90.70;;;;;;4949544;28;20202;-85
2022/12/19 11:32:41;;;;;;;17.13;9.40;;;5.50;91.10;;;;;;4950053;28;20709;-86
2022/12/19 11:35:20;;;;;;;14.50;9.48;;;5.60;91.40;;;;;;4949920;28;20324;-85
2022/12/19 11:37:50;;;;;;;14.60;9.88;;;5.60;91.40;;;;;;4950908;28;20300;-87
2022/12/19 11:40:26;;;;;;;13.70;9.45;;;5.70;91.20;;;;;;4951164;28;20210;-87
2022/12/19 11:42:58;;;;;;;14.85;8.98;;;5.70;91.60;;;;;;4949102;28;20209;-90
2022/12/19 11:45:34;;;;;;;14.32;8.75;;;5.90;91.00;;;;;;4952018;28;20666;-91
2022/12/19 11:48:12;;;;;;;11.48;7.68;;;6.00;90.90;;;;;;4951526;28;20280;-92
2022/12/19 11:50:44;;;;;;;15.75;8.60;;;6.00;91.10;;;;;;4948432;28;20665;-87
2022/12/19 11:53:17;;;;;;;15.23;9.13;;;6.00;90.70;;;;;;4950220;28;20301;-89
2022/12/19 11:55:50;;;;;;;11.75;7.78;;;6.10;91.10;;;;;;4947779;28;20215;-91
2022/12/19 11:58:16;;;;;;;12.68;8.27;;;6.10;90.50;;;;;;4948566;28;20213;-89
2022/12/19 12:00:53;;;;;;;10.60;8.05;;;5.90;90.80;;;;;;4946773;28;20209;-90
2022/12/19 12:03:57;;;;;;;12.23;8.07;;;5.70;91.40;;;;;;4951414;28;20215;-88
2022/12/19 12:06:31;;;;;;;10.52;7.82;;;5.60;92.20;;;;;;4950199;28;20209;-86
2022/12/19 12:09:11;;;;;;;13.75;8.32;;;5.70;92.40;;;;;;4953741;28;20209;-86
2022/12/19 12:11:43;;;;;;;11.68;8.15;;;5.80;91.90;;;;;;4950108;28;20209;-85
2022/12/19 12:14:24;;;;;;;13.63;8.65;;;6.10;91.40;;;;;;4950825;28;20229;-85
2022/12/19 12:17:20;;;;;;;12.10;8.38;;;5.80;91.30;;;;;;4951714;28;21903;-86
2022/12/19 12:19:58;;;;;;;13.60;8.90;;;5.70;92.10;;;;;;4948360;28;20324;-85
2022/12/19 12:22:47;;;;;;;10.73;7.55;;;5.80;91.90;;;;;;4951533;28;20220;-84
2022/12/19 12:25:34;;;;;;;11.70;8.25;;;6.00;91.60;;;;;;4951290;28;20213;-85
2022/12/19 12:28:20;;;;;;;13.88;8.45;;;6.20;91.10;;;;;;4951360;28;20201;-85
2022/12/19 12:30:56;;;;;;;12.85;7.95;;;6.20;91.10;;;;;;4953007;28;20300;-86
2022/12/19 12:33:36;;;;;;;10.63;7.40;;;6.30;91.10;;;;;;4950000;28;20197;-85
2022/12/19 12:36:14;;;;;;;10.75;7.45;;;6.30;91.60;;;;;;4948381;28;20200;-85
2022/12/19 12:38:54;;;;;;;11.23;7.15;;;6.50;90.80;;;;;;4942692;28;20209;-88
2022/12/19 12:42:02;;;;;;;11.45;8.10;;;6.50;90.70;;;;;;4943347;28;20201;-85
2022/12/19 12:44:13;;;;;;;12.65;7.60;;;6.40;91.00;;;;;;4949177;28;20217;-87
2022/12/19 12:46:44;;;;;;;10.98;7.63;;;6.20;91.00;;;;;;4952013;28;20302;-86
2022/12/19 12:49:34;;;;;;;11.82;7.65;;;6.30;91.90;;;;;;4950753;28;20636;-87
2022/12/19 12:52:04;;;;;;;11.60;7.90;;;6.20;91.40;;;;;;4950937;28;20213;-86
2022/12/19 12:54:35;;;;;;;11.98;8.55;;;6.20;92.00;;;;;;4950573;28;20734;-85
2022/12/19 12:57:03;;;;;;;12.50;8.68;;;5.90;91.90;;;;;;4951565;28;20209;-87
2022/12/19 12:59:31;;;;;;;12.85;8.45;;;6.00;92.50;;;;;;4944439;28;20205;-85
2022/12/19 13:01:59;;;;;;;13.63;9.20;;;6.00;92.40;;;;;;4950014;28;21075;-84
2022/12/19 13:04:30;;;;;;;11.98;8.20;;;6.00;91.90;;;;;;4934348;29;20652;-85
2022/12/19 13:07:33;;;;;;;13.32;9.20;;;6.00;92.60;;;;;;4935989;28;20212;-86
2022/12/19 13:10:18;;;;;;;14.93;9.63;;;6.00;92.60;;;;;;4910735;29;20218;-87
2022/12/19 13:13:02;;;;;;;12.45;8.90;;;5.90;92.90;;;;;;4910715;29;20209;-85
2022/12/19 13:15:49;;;;;;;18.27;10.75;;;6.00;92.80;;;;;;4913699;29;20665;-87
2022/12/19 13:18:36;;;;;;;16.83;10.07;;;5.80;93.10;;;;;;4908459;29;20210;-87
2022/12/19 13:21:06;;;;;;;20.83;10.98;;;5.70;93.50;;;;;;4910247;29;20203;-87